CheckWX is a tool to help pilots better visualize weather data.  It is not intended as a substitute for an official pre-flight weather briefing.

18:03:48 UTC

CYXL TAF
Sioux Lookout Airport
Sioux Lookout, Canada
TAF CYXL 241338Z 2414/2502 16006KT P6SM SCT080 BKN160 FM241700 23009KT P6SM BKN100 TEMPO 2417/2424 P6SM -SHRA FM250000 29006KT P6SM -SHRA BKN070 TEMPO 2500/2502 6SM -SHRA VCTS BR SCT030 BKN060CB RMK NXT FCST BY 242000Z

Apr-24@
14:00 UTC

Apr-24 @ 14:00 UTC

Apr-24@
17:00 UTC

Apr-24 @ 17:00 UTC

TAF CYXL 241338Z 2414/2502 16006KT P6SM SCT080 BKN160

Expired

Wind
  • 160° at 6 KTS
Cloud Levels
  • Scattered at 8,000' AGL
  • Broken at 16,000' AGL

Apr-24@
17:00 UTC

Apr-24 @ 17:00 UTC

Apr-25@
00:00 UTC

Apr-25 @ 00:00 UTC

FM241700 23009KT P6SM BKN100

From

From Standard forecast or significant change

Wind
  • 230° at 9 KTS
Cloud Levels
  • Broken at 10,000' AGL

Apr-24@
17:00 UTC

Apr-24 @ 17:00 UTC

Apr-25@
00:00 UTC

Apr-25 @ 00:00 UTC

TEMPO 2417/2424 P6SM -SHRA

Temporary

Temporary Changes expected for less than half the time period

Conditions
Light Rain

Apr-25@
00:00 UTC

Apr-25 @ 00:00 UTC

Apr-25@
02:00 UTC

Apr-25 @ 02:00 UTC

FM250000 29006KT P6SM -SHRA BKN070

From

From Standard forecast or significant change

Wind
  • 290° at 6 KTS
Conditions
Light Rain
Cloud Levels
  • Broken at 7,000' AGL

Apr-25@
00:00 UTC

Apr-25 @ 00:00 UTC

Apr-25@
02:00 UTC

Apr-25 @ 02:00 UTC

TEMPO 2500/2502 6SM -SHRA VCTS BR SCT030 BKN060CB RMK NXT FCST BY 242000Z

Temporary

Temporary Changes expected for less than half the time period

Conditions
Light Rain, Area Thunderstorm, Mist
Cloud Levels
  • Scattered at 3,000' AGL
  • Broken at 6,000' AGL